Pagina principală
METAR-TAF:

METAR-TAF

Aeroporturi :

São Pedro da Aldeia, Rio de Janeiro, Brazilia

Latitudine: 22-49S, longitudine: 042-06W, elevație: 10 m

Observații meteo curente

Raportul a fost făcut în urmă cu 1 oră și 10 de minute, la 10:00 UTC
Vânt 2 kt din direcții variabile
Temperatură 22°C
Umiditate 100%
Presiune 1020 hPa
Vizibilitate: 1500 m
Nori împrăștiați la o înălțime de 400 picior
Nori fragmentați la o înălțime de 1000 picior
Total acoperit la o înălțime de 2000 picior
ploaie slabă, aer cețos,

METAR: SBES 211000Z VRB02KT 1500 -RA BR SCT004 BKN010 OVC020 22/22 Q1020 RERA

Ora: 08:10 (11:10 UTC)


TAF: lipsă

Observații și prognoze meteo pentru peste 4.000 de aeroporturi (rapoarte METAR și TAF).

Stațiile disponibile sunt reprezentate pe hartă prin puncte galbene și roșii.

Țineți indicatorul mouse-ului pe punctul dorit pentru a vedea denumirea stației.

Apoi, faceți clic pentru a vedea observațiile și prognozele meteorologice.

Pentru a schimba harta: Pentru mărire, faceți clic pe butoanele verzi cu cruce neagră; pentru micșorare, pe butonul verde cu o liniuță; pentru hărți învecinate, pe săgețile verzi.


METAR-TAF: